PDA6116 UKWW-LEAL
Flight info
| Callsign | PDA6116 |
|---|---|
| Flight time | N/A |
| Altitude | 36000 |
| Route | TAKET M991 GOTRA DCT SIRSI M986 LONLA/N0440F360 DCT ETARO DCT DIMLO DCT BARPI/N0441F370 DCT TODNO DCT TORTU DCT ZETCO DCT SORAS N850 ADX Z237 OKITI M603 GERVU |
| Aircraft | B738/M-SDE2E3FGHIRWXY/LB1 |
Departure
| Time | N/A |
|---|---|
| Airport | Vinnytsia/Gavyryshivka International Airport (UKWW) |
Arrival
| Time | 2026-05-06 16:29 |
|---|---|
| Airport | Alicante-Elche Miguel Hernández Airport (LEAL) |
| Time | Latitude | Longitude | Altitude | Speed | Heading |
|---|---|---|---|---|---|
| 2026-05-06 14:13 | 46.03660 | 14.67721 | 35941 ft | 400 kts | 240° |
| 2026-05-06 14:13 | 46.00975 | 14.60709 | 35930 ft | 399 kts | 239° |
| 2026-05-06 14:14 | 45.98297 | 14.53729 | 35932 ft | 398 kts | 239° |
| 2026-05-06 14:14 | 45.95614 | 14.46758 | 35934 ft | 402 kts | 239° |
| 2026-05-06 14:15 | 45.92891 | 14.39701 | 35942 ft | 410 kts | 239° |
| 2026-05-06 14:15 | 45.90102 | 14.32491 | 35962 ft | 415 kts | 239° |
| 2026-05-06 14:16 | 45.87282 | 14.25216 | 35929 ft | 418 kts | 239° |
| 2026-05-06 14:16 | 45.84456 | 14.17944 | 35938 ft | 417 kts | 239° |
| 2026-05-06 14:17 | 45.81628 | 14.10689 | 35928 ft | 417 kts | 239° |
| 2026-05-06 14:17 | 45.78817 | 14.03499 | 35952 ft | 415 kts | 239° |
| 2026-05-06 14:18 | 45.75991 | 13.96282 | 35940 ft | 414 kts | 239° |
| 2026-05-06 14:18 | 45.73165 | 13.89089 | 35935 ft | 414 kts | 239° |
| 2026-05-06 14:19 | 45.70339 | 13.81915 | 35972 ft | 413 kts | 239° |
| 2026-05-06 14:19 | 45.67538 | 13.74824 | 35931 ft | 412 kts | 239° |
| 2026-05-06 14:20 | 45.64723 | 13.67711 | 35920 ft | 410 kts | 239° |
| 2026-05-06 14:20 | 45.61914 | 13.60631 | 35914 ft | 409 kts | 239° |
| 2026-05-06 14:21 | 45.59109 | 13.53580 | 35910 ft | 408 kts | 239° |
| 2026-05-06 14:21 | 45.56263 | 13.46568 | 35931 ft | 409 kts | 238° |
| 2026-05-06 14:22 | 45.53373 | 13.39608 | 35905 ft | 410 kts | 238° |
| 2026-05-06 14:22 | 45.50464 | 13.32619 | 35935 ft | 409 kts | 238° |
| 2026-05-06 14:23 | 45.47563 | 13.25643 | 35957 ft | 410 kts | 238° |
| 2026-05-06 14:23 | 45.46110 | 13.22152 | 36145 ft | 409 kts | 238° |
| 2026-05-06 14:23 | 45.44658 | 13.18668 | 36376 ft | 408 kts | 238° |
| 2026-05-06 14:24 | 45.43214 | 13.15204 | 36586 ft | 407 kts | 238° |
| 2026-05-06 14:24 | 45.41762 | 13.11727 | 36579 ft | 410 kts | 238° |
| 2026-05-06 14:24 | 45.38843 | 13.04749 | 36589 ft | 410 kts | 238° |
| 2026-05-06 14:25 | 45.35948 | 12.97846 | 36597 ft | 408 kts | 238° |
| 2026-05-06 14:25 | 45.33040 | 12.90926 | 36595 ft | 407 kts | 238° |
| 2026-05-06 14:26 | 45.30129 | 12.84019 | 36630 ft | 407 kts | 238° |
| 2026-05-06 14:26 | 45.27226 | 12.77148 | 36605 ft | 405 kts | 238° |
| 2026-05-06 14:27 | 45.24328 | 12.70304 | 36589 ft | 404 kts | 238° |
| 2026-05-06 14:27 | 45.21452 | 12.63529 | 36595 ft | 402 kts | 238° |
| 2026-05-06 14:28 | 45.18568 | 12.56753 | 36598 ft | 401 kts | 238° |
| 2026-05-06 14:28 | 45.15686 | 12.49997 | 36598 ft | 400 kts | 238° |
| 2026-05-06 14:29 | 45.12802 | 12.43252 | 36596 ft | 400 kts | 238° |
| 2026-05-06 14:29 | 45.09916 | 12.36518 | 36592 ft | 400 kts | 238° |
| 2026-05-06 14:30 | 45.07043 | 12.29830 | 36598 ft | 401 kts | 237° |
| 2026-05-06 14:30 | 45.04142 | 12.23094 | 36598 ft | 401 kts | 237° |
| 2026-05-06 14:31 | 45.01231 | 12.16351 | 36602 ft | 402 kts | 237° |
| 2026-05-06 14:31 | 44.98311 | 12.09601 | 36599 ft | 403 kts | 237° |
| 2026-05-06 14:32 | 44.95393 | 12.02874 | 36749 ft | 405 kts | 237° |
| 2026-05-06 14:32 | 44.93921 | 11.99488 | 36895 ft | 405 kts | 237° |
| 2026-05-06 14:32 | 44.92449 | 11.96104 | 36887 ft | 405 kts | 237° |
| 2026-05-06 14:33 | 44.89510 | 11.89359 | 36895 ft | 402 kts | 237° |
| 2026-05-06 14:33 | 44.86584 | 11.82658 | 36905 ft | 401 kts | 237° |
| 2026-05-06 14:34 | 44.83679 | 11.76024 | 36902 ft | 399 kts | 237° |
| 2026-05-06 14:34 | 44.80766 | 11.69387 | 36905 ft | 398 kts | 237° |
| 2026-05-06 14:35 | 44.77853 | 11.62765 | 36896 ft | 397 kts | 237° |
| 2026-05-06 14:35 | 44.74941 | 11.56161 | 36897 ft | 397 kts | 237° |
| 2026-05-06 14:36 | 44.72051 | 11.49619 | 36889 ft | 397 kts | 237° |
| 2026-05-06 14:36 | 44.69131 | 11.43027 | 36878 ft | 398 kts | 237° |
| 2026-05-06 14:37 | 44.66204 | 11.36434 | 36875 ft | 399 kts | 237° |
| 2026-05-06 14:37 | 44.63087 | 11.29985 | 36870 ft | 400 kts | 233° |
| 2026-05-06 14:38 | 44.59811 | 11.23671 | 36927 ft | 400 kts | 233° |
| 2026-05-06 14:38 | 44.56562 | 11.17407 | 36918 ft | 400 kts | 233° |
| 2026-05-06 14:39 | 44.53307 | 11.11084 | 36925 ft | 399 kts | 233° |
| 2026-05-06 14:39 | 44.50062 | 11.04769 | 36926 ft | 399 kts | 233° |
| 2026-05-06 14:40 | 44.46830 | 10.98482 | 36929 ft | 398 kts | 233° |
| 2026-05-06 14:40 | 44.43619 | 10.92248 | 36928 ft | 397 kts | 233° |
| 2026-05-06 14:41 | 44.40395 | 10.86005 | 36935 ft | 396 kts | 233° |
| 2026-05-06 14:41 | 44.37175 | 10.79782 | 36943 ft | 395 kts | 233° |
| 2026-05-06 14:42 | 44.33950 | 10.73562 | 36942 ft | 395 kts | 233° |
| 2026-05-06 14:42 | 44.30742 | 10.67391 | 36944 ft | 395 kts | 233° |
| 2026-05-06 14:43 | 44.27516 | 10.61196 | 36957 ft | 395 kts | 233° |
| 2026-05-06 14:43 | 44.24287 | 10.55009 | 36962 ft | 395 kts | 233° |
| 2026-05-06 14:44 | 44.21046 | 10.48814 | 36957 ft | 395 kts | 233° |
| 2026-05-06 14:45 | 44.16180 | 10.39534 | 36952 ft | 396 kts | 233° |
| 2026-05-06 14:45 | 44.12923 | 10.33342 | 36916 ft | 396 kts | 233° |
| 2026-05-06 14:46 | 44.09690 | 10.27205 | 36946 ft | 398 kts | 233° |
| 2026-05-06 14:46 | 44.06400 | 10.20974 | 36935 ft | 401 kts | 233° |
| 2026-05-06 14:47 | 44.03091 | 10.14720 | 36948 ft | 403 kts | 233° |
| 2026-05-06 14:47 | 43.99766 | 10.08451 | 36937 ft | 404 kts | 233° |
| 2026-05-06 14:48 | 43.96432 | 10.02178 | 36937 ft | 403 kts | 233° |
| 2026-05-06 14:48 | 43.93122 | 9.95962 | 36936 ft | 403 kts | 233° |
| 2026-05-06 14:49 | 43.89785 | 9.89712 | 36920 ft | 403 kts | 233° |
| 2026-05-06 14:49 | 43.86455 | 9.83486 | 36922 ft | 402 kts | 233° |
| 2026-05-06 14:50 | 43.83125 | 9.77273 | 36923 ft | 401 kts | 233° |
| 2026-05-06 14:50 | 43.79823 | 9.71126 | 36907 ft | 400 kts | 233° |
| 2026-05-06 14:51 | 43.76511 | 9.64973 | 36898 ft | 398 kts | 233° |
| 2026-05-06 14:51 | 43.73205 | 9.58844 | 36904 ft | 397 kts | 233° |
| 2026-05-06 14:52 | 43.69903 | 9.52735 | 36898 ft | 396 kts | 233° |
| 2026-05-06 14:52 | 43.66603 | 9.46643 | 36899 ft | 396 kts | 233° |
| 2026-05-06 14:53 | 43.63324 | 9.40601 | 36890 ft | 395 kts | 232° |
| 2026-05-06 14:53 | 43.60029 | 9.34544 | 36894 ft | 394 kts | 232° |
| 2026-05-06 14:54 | 43.56732 | 9.28495 | 36898 ft | 394 kts | 232° |
| 2026-05-06 14:54 | 43.53441 | 9.22468 | 36896 ft | 393 kts | 232° |
| 2026-05-06 14:55 | 43.50151 | 9.16456 | 36893 ft | 393 kts | 232° |
| 2026-05-06 14:55 | 43.46877 | 9.10484 | 36897 ft | 393 kts | 232° |
| 2026-05-06 14:56 | 43.43584 | 9.04490 | 36895 ft | 393 kts | 232° |
| 2026-05-06 14:56 | 43.40282 | 8.98491 | 36901 ft | 394 kts | 232° |
| 2026-05-06 14:57 | 43.37000 | 8.92460 | 36899 ft | 394 kts | 233° |
| 2026-05-06 14:57 | 43.33809 | 8.86378 | 36899 ft | 395 kts | 233° |
| 2026-05-06 14:58 | 43.30598 | 8.80242 | 36901 ft | 396 kts | 233° |
| 2026-05-06 14:58 | 43.27374 | 8.74113 | 36896 ft | 396 kts | 233° |
| 2026-05-06 14:59 | 43.24138 | 8.67987 | 36914 ft | 397 kts | 233° |
| 2026-05-06 14:59 | 43.20914 | 8.61900 | 36906 ft | 398 kts | 233° |
| 2026-05-06 15:00 | 43.17659 | 8.55771 | 36911 ft | 398 kts | 233° |
| 2026-05-06 15:00 | 43.14403 | 8.49651 | 36912 ft | 398 kts | 233° |
| 2026-05-06 15:01 | 43.11139 | 8.43529 | 36898 ft | 398 kts | 233° |
| 2026-05-06 15:01 | 43.07901 | 8.37468 | 36911 ft | 397 kts | 233° |
| 2026-05-06 15:02 | 43.04642 | 8.31380 | 36919 ft | 397 kts | 233° |
| 2026-05-06 15:02 | 43.01372 | 8.25285 | 36914 ft | 397 kts | 233° |
| 2026-05-06 15:03 | 42.98100 | 8.19197 | 36909 ft | 397 kts | 233° |
| 2026-05-06 15:03 | 42.94852 | 8.13168 | 36917 ft | 397 kts | 233° |
| 2026-05-06 15:04 | 42.91577 | 8.07101 | 36914 ft | 397 kts | 233° |
| 2026-05-06 15:04 | 42.88302 | 8.01044 | 36921 ft | 397 kts | 233° |
| 2026-05-06 15:05 | 42.85022 | 7.94992 | 36936 ft | 397 kts | 233° |
| 2026-05-06 15:05 | 42.81737 | 7.88943 | 36926 ft | 397 kts | 233° |
| 2026-05-06 15:06 | 42.78470 | 7.82940 | 36924 ft | 397 kts | 233° |
| 2026-05-06 15:06 | 42.75175 | 7.76897 | 36897 ft | 397 kts | 233° |
| 2026-05-06 15:07 | 42.71885 | 7.70875 | 36913 ft | 397 kts | 233° |
| 2026-05-06 15:07 | 42.68613 | 7.64898 | 36924 ft | 397 kts | 233° |
| 2026-05-06 15:08 | 42.65316 | 7.58888 | 36934 ft | 397 kts | 233° |
| 2026-05-06 15:08 | 42.62011 | 7.52875 | 36928 ft | 397 kts | 233° |
| 2026-05-06 15:09 | 42.58701 | 7.46865 | 36928 ft | 398 kts | 233° |
| 2026-05-06 15:09 | 42.55384 | 7.40855 | 36926 ft | 398 kts | 233° |
| 2026-05-06 15:10 | 42.52082 | 7.34884 | 36932 ft | 398 kts | 233° |
| 2026-05-06 15:10 | 42.48757 | 7.28882 | 36933 ft | 398 kts | 233° |
| 2026-05-06 15:11 | 42.45429 | 7.22888 | 36933 ft | 398 kts | 233° |
| 2026-05-06 15:11 | 42.42099 | 7.16901 | 36931 ft | 398 kts | 233° |
| 2026-05-06 15:12 | 42.38760 | 7.10910 | 36902 ft | 398 kts | 233° |
| 2026-05-06 15:12 | 42.35450 | 7.04984 | 36924 ft | 398 kts | 233° |
| 2026-05-06 15:13 | 42.32114 | 6.99023 | 36930 ft | 398 kts | 233° |
| 2026-05-06 15:13 | 42.28775 | 6.93068 | 36938 ft | 398 kts | 232° |
| 2026-05-06 15:14 | 42.25452 | 6.87153 | 36935 ft | 398 kts | 232° |
| 2026-05-06 15:14 | 42.22105 | 6.81206 | 36944 ft | 399 kts | 233° |
| 2026-05-06 15:15 | 42.18752 | 6.75258 | 36933 ft | 398 kts | 233° |
| 2026-05-06 15:15 | 42.15368 | 6.69355 | 36938 ft | 398 kts | 229° |
| 2026-05-06 15:16 | 42.11435 | 6.64112 | 36939 ft | 398 kts | 225° |
| 2026-05-06 15:16 | 42.07470 | 6.58975 | 36947 ft | 398 kts | 225° |
| 2026-05-06 15:17 | 42.03480 | 6.53789 | 36942 ft | 399 kts | 225° |
| 2026-05-06 15:17 | 41.99498 | 6.48605 | 36940 ft | 399 kts | 225° |
| 2026-05-06 15:18 | 41.95509 | 6.43417 | 36951 ft | 399 kts | 225° |
| 2026-05-06 15:18 | 41.91549 | 6.38276 | 36951 ft | 399 kts | 225° |
| 2026-05-06 15:19 | 41.87560 | 6.33106 | 36947 ft | 398 kts | 225° |
| 2026-05-06 15:19 | 41.83573 | 6.27949 | 36950 ft | 398 kts | 225° |
| 2026-05-06 15:20 | 41.79609 | 6.22830 | 36948 ft | 397 kts | 225° |
| 2026-05-06 15:20 | 41.75619 | 6.17701 | 36950 ft | 397 kts | 225° |
| 2026-05-06 15:21 | 41.71635 | 6.12570 | 36951 ft | 397 kts | 225° |
| 2026-05-06 15:21 | 41.67648 | 6.07445 | 36973 ft | 398 kts | 225° |
| 2026-05-06 15:22 | 41.63676 | 6.02351 | 36959 ft | 398 kts | 225° |
| 2026-05-06 15:22 | 41.59679 | 5.97235 | 36947 ft | 397 kts | 225° |
| 2026-05-06 15:23 | 41.55682 | 5.92130 | 36949 ft | 398 kts | 225° |
| 2026-05-06 15:23 | 41.51685 | 5.87034 | 36954 ft | 398 kts | 225° |
| 2026-05-06 15:24 | 41.47706 | 5.81970 | 36955 ft | 398 kts | 225° |
| 2026-05-06 15:24 | 41.43705 | 5.76887 | 36956 ft | 398 kts | 225° |
| 2026-05-06 15:25 | 41.39695 | 5.71802 | 36946 ft | 398 kts | 225° |
| 2026-05-06 15:25 | 41.35684 | 5.66724 | 36960 ft | 398 kts | 225° |
| 2026-05-06 15:26 | 41.31691 | 5.61679 | 36955 ft | 398 kts | 225° |
| 2026-05-06 15:26 | 41.27674 | 5.56612 | 36956 ft | 398 kts | 225° |
| 2026-05-06 15:27 | 41.23654 | 5.51550 | 36953 ft | 398 kts | 225° |
| 2026-05-06 15:27 | 41.19637 | 5.46501 | 36947 ft | 397 kts | 225° |
| 2026-05-06 15:28 | 41.15643 | 5.41490 | 36956 ft | 398 kts | 225° |
| 2026-05-06 15:28 | 41.11621 | 5.36452 | 36954 ft | 398 kts | 225° |
| 2026-05-06 15:29 | 41.07587 | 5.31409 | 36968 ft | 399 kts | 225° |
| 2026-05-06 15:29 | 41.03546 | 5.26365 | 36958 ft | 399 kts | 225° |
| 2026-05-06 15:30 | 40.99535 | 5.21368 | 36941 ft | 399 kts | 225° |
| 2026-05-06 15:30 | 40.95492 | 5.16340 | 36951 ft | 399 kts | 225° |
| 2026-05-06 15:31 | 40.91449 | 5.11320 | 36958 ft | 399 kts | 225° |
| 2026-05-06 15:31 | 40.87398 | 5.06301 | 36950 ft | 399 kts | 225° |
| 2026-05-06 15:32 | 40.81341 | 4.98810 | 36951 ft | 399 kts | 225° |
| 2026-05-06 15:32 | 40.77284 | 4.93804 | 36963 ft | 399 kts | 225° |
| 2026-05-06 15:33 | 40.73221 | 4.88799 | 36953 ft | 400 kts | 225° |
| 2026-05-06 15:33 | 40.69152 | 4.83796 | 36950 ft | 400 kts | 225° |
| 2026-05-06 15:34 | 40.65109 | 4.78831 | 36951 ft | 400 kts | 225° |
| 2026-05-06 15:34 | 40.61032 | 4.73834 | 36951 ft | 400 kts | 225° |
| 2026-05-06 15:35 | 40.56977 | 4.68829 | 36945 ft | 399 kts | 229° |
| 2026-05-06 15:35 | 40.53688 | 4.63003 | 36946 ft | 397 kts | 242° |
| 2026-05-06 15:36 | 40.51189 | 4.56577 | 36966 ft | 397 kts | 243° |
| 2026-05-06 15:36 | 40.48673 | 4.50116 | 36956 ft | 398 kts | 243° |
| 2026-05-06 15:37 | 40.46140 | 4.43664 | 36942 ft | 397 kts | 242° |
| 2026-05-06 15:37 | 40.43597 | 4.37219 | 36944 ft | 397 kts | 242° |
| 2026-05-06 15:38 | 40.41069 | 4.30829 | 36942 ft | 397 kts | 242° |
| 2026-05-06 15:38 | 40.38523 | 4.24407 | 36928 ft | 396 kts | 242° |
| 2026-05-06 15:39 | 40.35975 | 4.17994 | 36965 ft | 396 kts | 242° |
| 2026-05-06 15:39 | 40.33428 | 4.11597 | 36950 ft | 397 kts | 242° |
| 2026-05-06 15:40 | 40.30884 | 4.05222 | 36942 ft | 397 kts | 242° |
| 2026-05-06 15:40 | 40.28326 | 3.98824 | 36943 ft | 397 kts | 242° |
| 2026-05-06 15:41 | 40.25761 | 3.92423 | 36943 ft | 397 kts | 242° |
| 2026-05-06 15:41 | 40.23193 | 3.86028 | 36939 ft | 397 kts | 242° |
| 2026-05-06 15:42 | 40.20640 | 3.79680 | 36957 ft | 397 kts | 242° |
| 2026-05-06 15:42 | 40.18066 | 3.73295 | 36934 ft | 397 kts | 242° |
| 2026-05-06 15:43 | 40.15476 | 3.66916 | 36932 ft | 397 kts | 242° |
| 2026-05-06 15:43 | 40.12868 | 3.60555 | 36938 ft | 397 kts | 242° |
| 2026-05-06 15:44 | 40.10274 | 3.54233 | 36940 ft | 398 kts | 242° |
| 2026-05-06 15:44 | 40.07659 | 3.47858 | 36945 ft | 398 kts | 242° |
| 2026-05-06 15:45 | 40.05047 | 3.41479 | 36937 ft | 399 kts | 242° |
| 2026-05-06 15:45 | 40.02430 | 3.35101 | 36941 ft | 399 kts | 242° |
| 2026-05-06 15:46 | 39.99826 | 3.28769 | 36945 ft | 399 kts | 242° |
| 2026-05-06 15:46 | 39.97200 | 3.22394 | 36930 ft | 399 kts | 242° |
| 2026-05-06 15:47 | 39.94574 | 3.16032 | 36933 ft | 399 kts | 242° |
| 2026-05-06 15:47 | 39.91862 | 3.09726 | 36941 ft | 400 kts | 238° |
| 2026-05-06 15:48 | 39.88760 | 3.03770 | 36962 ft | 400 kts | 236° |
| 2026-05-06 15:48 | 39.85590 | 2.97811 | 36944 ft | 400 kts | 236° |
| 2026-05-06 15:49 | 39.82450 | 2.91847 | 36931 ft | 399 kts | 237° |
| 2026-05-06 15:49 | 39.79325 | 2.85887 | 36931 ft | 399 kts | 237° |
| 2026-05-06 15:50 | 39.76202 | 2.79928 | 36916 ft | 398 kts | 237° |
| 2026-05-06 15:50 | 39.73105 | 2.74032 | 36932 ft | 398 kts | 237° |
| 2026-05-06 15:51 | 39.69985 | 2.68101 | 36934 ft | 398 kts | 237° |
| 2026-05-06 15:51 | 39.66861 | 2.62176 | 36938 ft | 398 kts | 237° |
| 2026-05-06 15:52 | 39.63760 | 2.56312 | 36951 ft | 397 kts | 237° |
| 2026-05-06 15:52 | 39.60627 | 2.50396 | 36924 ft | 398 kts | 237° |
| 2026-05-06 15:53 | 39.57493 | 2.44483 | 36932 ft | 398 kts | 237° |
| 2026-05-06 15:53 | 39.54390 | 2.38537 | 36918 ft | 398 kts | 239° |
| 2026-05-06 15:54 | 39.51613 | 2.32397 | 36918 ft | 398 kts | 240° |
| 2026-05-06 15:54 | 39.48852 | 2.26191 | 36933 ft | 398 kts | 240° |
| 2026-05-06 15:55 | 39.46072 | 2.19981 | 36930 ft | 399 kts | 240° |
| 2026-05-06 15:55 | 39.43279 | 2.13782 | 36927 ft | 399 kts | 240° |
| 2026-05-06 15:56 | 39.40499 | 2.07630 | 36925 ft | 399 kts | 240° |
| 2026-05-06 15:56 | 39.37698 | 2.01447 | 36928 ft | 399 kts | 240° |
| 2026-05-06 15:57 | 39.34892 | 1.95266 | 36927 ft | 399 kts | 240° |
| 2026-05-06 15:57 | 39.32084 | 1.89090 | 36944 ft | 398 kts | 240° |
| 2026-05-06 15:58 | 39.29344 | 1.83079 | 36882 ft | 384 kts | 240° |
| 2026-05-06 15:58 | 39.26643 | 1.77163 | 36803 ft | 381 kts | 240° |
| 2026-05-06 15:59 | 39.23962 | 1.71301 | 36794 ft | 378 kts | 240° |
| 2026-05-06 15:59 | 39.21295 | 1.65477 | 36784 ft | 376 kts | 240° |
| 2026-05-06 16:00 | 39.18643 | 1.59700 | 36718 ft | 376 kts | 240° |
| 2026-05-06 16:00 | 39.15975 | 1.53895 | 36689 ft | 376 kts | 240° |
| 2026-05-06 16:01 | 39.13320 | 1.48132 | 36346 ft | 370 kts | 240° |
| 2026-05-06 16:01 | 39.12029 | 1.45322 | 36067 ft | 361 kts | 242° |
| 2026-05-06 16:01 | 39.10955 | 1.42426 | 35732 ft | 355 kts | 248° |
| 2026-05-06 16:02 | 39.10072 | 1.39488 | 35374 ft | 351 kts | 249° |
| 2026-05-06 16:02 | 39.09210 | 1.36608 | 34958 ft | 349 kts | 249° |
| 2026-05-06 16:02 | 39.08343 | 1.33720 | 34653 ft | 344 kts | 249° |
| 2026-05-06 16:02 | 39.07480 | 1.30860 | 34269 ft | 341 kts | 248° |
| 2026-05-06 16:03 | 39.06622 | 1.28026 | 33908 ft | 339 kts | 248° |
| 2026-05-06 16:03 | 39.05766 | 1.25209 | 33492 ft | 336 kts | 248° |
| 2026-05-06 16:03 | 39.04919 | 1.22427 | 33101 ft | 333 kts | 248° |
| 2026-05-06 16:03 | 39.04078 | 1.19669 | 32730 ft | 330 kts | 248° |
| 2026-05-06 16:04 | 39.03244 | 1.16936 | 32382 ft | 327 kts | 248° |
| 2026-05-06 16:04 | 39.02426 | 1.14263 | 32026 ft | 324 kts | 248° |
| 2026-05-06 16:04 | 39.01605 | 1.11577 | 31670 ft | 321 kts | 248° |
| 2026-05-06 16:04 | 39.00788 | 1.08913 | 31325 ft | 322 kts | 248° |
| 2026-05-06 16:05 | 38.99945 | 1.06162 | 30996 ft | 341 kts | 248° |
| 2026-05-06 16:05 | 38.99047 | 1.03240 | 30620 ft | 361 kts | 248° |
| 2026-05-06 16:05 | 38.98101 | 1.00159 | 30211 ft | 381 kts | 248° |
| 2026-05-06 16:05 | 38.97104 | 0.96917 | 29736 ft | 395 kts | 248° |
| 2026-05-06 16:06 | 38.96108 | 0.93685 | 29226 ft | 393 kts | 248° |
| 2026-05-06 16:06 | 38.95104 | 0.90428 | 28712 ft | 391 kts | 248° |
| 2026-05-06 16:06 | 38.94105 | 0.87196 | 28262 ft | 388 kts | 248° |
| 2026-05-06 16:06 | 38.93113 | 0.83989 | 27811 ft | 385 kts | 248° |
| 2026-05-06 16:07 | 38.92126 | 0.80801 | 27389 ft | 383 kts | 248° |
| 2026-05-06 16:07 | 38.91124 | 0.77567 | 26962 ft | 398 kts | 248° |
| 2026-05-06 16:07 | 38.90081 | 0.74204 | 26508 ft | 408 kts | 248° |
| 2026-05-06 16:07 | 38.89030 | 0.70818 | 26032 ft | 408 kts | 248° |
| 2026-05-06 16:08 | 38.87986 | 0.67457 | 25565 ft | 403 kts | 248° |
| 2026-05-06 16:08 | 38.86964 | 0.64178 | 25125 ft | 399 kts | 248° |
| 2026-05-06 16:08 | 38.85931 | 0.60869 | 24694 ft | 405 kts | 248° |
| 2026-05-06 16:08 | 38.84873 | 0.57484 | 24271 ft | 411 kts | 248° |
| 2026-05-06 16:09 | 38.83809 | 0.54083 | 23761 ft | 410 kts | 248° |
| 2026-05-06 16:09 | 38.82753 | 0.50708 | 23250 ft | 405 kts | 248° |
| 2026-05-06 16:09 | 38.81734 | 0.47361 | 22745 ft | 401 kts | 250° |
| 2026-05-06 16:09 | 38.80921 | 0.43975 | 22339 ft | 396 kts | 253° |
| 2026-05-06 16:10 | 38.80218 | 0.40559 | 21945 ft | 398 kts | 255° |
| 2026-05-06 16:10 | 38.79548 | 0.37158 | 21552 ft | 401 kts | 255° |
| 2026-05-06 16:10 | 38.78862 | 0.33688 | 21146 ft | 401 kts | 255° |
| 2026-05-06 16:10 | 38.78168 | 0.30248 | 20746 ft | 398 kts | 255° |
| 2026-05-06 16:11 | 38.77463 | 0.26820 | 20350 ft | 397 kts | 255° |
| 2026-05-06 16:11 | 38.76751 | 0.23407 | 19956 ft | 396 kts | 254° |
| 2026-05-06 16:11 | 38.76033 | 0.20000 | 19569 ft | 395 kts | 254° |
| 2026-05-06 16:11 | 38.75315 | 0.16609 | 19174 ft | 395 kts | 254° |
| 2026-05-06 16:12 | 38.74593 | 0.13215 | 18778 ft | 394 kts | 254° |
| 2026-05-06 16:12 | 38.73881 | 0.09873 | 18390 ft | 394 kts | 254° |
| 2026-05-06 16:12 | 38.73161 | 0.06496 | 17973 ft | 393 kts | 255° |
| 2026-05-06 16:12 | 38.72441 | 0.03128 | 17540 ft | 392 kts | 255° |
| 2026-05-06 16:13 | 38.71723 | -0.00230 | 17133 ft | 390 kts | 255° |
| 2026-05-06 16:13 | 38.71009 | -0.03564 | 16729 ft | 387 kts | 255° |
| 2026-05-06 16:13 | 38.70296 | -0.06888 | 16344 ft | 386 kts | 255° |
| 2026-05-06 16:13 | 38.69586 | -0.10190 | 15934 ft | 384 kts | 255° |
| 2026-05-06 16:14 | 38.68879 | -0.13476 | 15552 ft | 382 kts | 255° |
| 2026-05-06 16:14 | 38.68174 | -0.16743 | 15189 ft | 380 kts | 255° |
| 2026-05-06 16:14 | 38.67483 | -0.19947 | 14791 ft | 379 kts | 255° |
| 2026-05-06 16:14 | 38.66783 | -0.23184 | 14449 ft | 377 kts | 255° |
| 2026-05-06 16:15 | 38.66085 | -0.26412 | 14081 ft | 376 kts | 255° |
| 2026-05-06 16:15 | 38.65387 | -0.29638 | 13701 ft | 376 kts | 255° |
| 2026-05-06 16:15 | 38.64688 | -0.32861 | 13279 ft | 375 kts | 255° |
| 2026-05-06 16:15 | 38.63992 | -0.36062 | 12882 ft | 370 kts | 255° |
| 2026-05-06 16:16 | 38.63311 | -0.39187 | 12494 ft | 361 kts | 255° |
| 2026-05-06 16:16 | 38.62645 | -0.42240 | 12128 ft | 351 kts | 255° |
| 2026-05-06 16:16 | 38.62006 | -0.45164 | 11783 ft | 341 kts | 255° |
| 2026-05-06 16:16 | 38.61373 | -0.48047 | 11459 ft | 333 kts | 255° |
| 2026-05-06 16:17 | 38.60756 | -0.50865 | 11127 ft | 326 kts | 255° |
| 2026-05-06 16:17 | 38.60151 | -0.53631 | 10815 ft | 320 kts | 255° |
| 2026-05-06 16:17 | 38.59556 | -0.56349 | 10494 ft | 315 kts | 255° |
| 2026-05-06 16:17 | 38.58969 | -0.59026 | 10178 ft | 311 kts | 255° |
| 2026-05-06 16:18 | 38.58388 | -0.61669 | 9951 ft | 303 kts | 255° |
| 2026-05-06 16:18 | 38.57833 | -0.64191 | 9950 ft | 287 kts | 256° |
| 2026-05-06 16:18 | 38.57312 | -0.66553 | 9910 ft | 266 kts | 255° |
| 2026-05-06 16:18 | 38.56827 | -0.68751 | 9593 ft | 258 kts | 255° |
| 2026-05-06 16:19 | 38.56339 | -0.70969 | 9039 ft | 261 kts | 255° |
| 2026-05-06 16:19 | 38.55849 | -0.73195 | 8639 ft | 258 kts | 255° |
| 2026-05-06 16:19 | 38.55366 | -0.75379 | 8337 ft | 253 kts | 255° |
| 2026-05-06 16:19 | 38.54892 | -0.77515 | 8089 ft | 246 kts | 256° |
| 2026-05-06 16:20 | 38.54429 | -0.79598 | 7816 ft | 241 kts | 256° |
| 2026-05-06 16:20 | 38.53979 | -0.81627 | 7563 ft | 235 kts | 254° |
| 2026-05-06 16:20 | 38.53207 | -0.83409 | 7323 ft | 235 kts | 227° |
| 2026-05-06 16:20 | 38.51803 | -0.84460 | 7118 ft | 238 kts | 202° |
| 2026-05-06 16:21 | 38.50160 | -0.84864 | 6908 ft | 247 kts | 188° |
| 2026-05-06 16:21 | 38.48420 | -0.85029 | 6634 ft | 253 kts | 186° |
| 2026-05-06 16:21 | 38.46670 | -0.85165 | 6374 ft | 251 kts | 185° |
| 2026-05-06 16:21 | 38.44928 | -0.85306 | 6107 ft | 250 kts | 186° |
| 2026-05-06 16:22 | 38.43195 | -0.85456 | 5846 ft | 249 kts | 186° |
| 2026-05-06 16:22 | 38.41471 | -0.85615 | 5599 ft | 247 kts | 185° |
| 2026-05-06 16:22 | 38.39804 | -0.85774 | 5489 ft | 241 kts | 185° |
| 2026-05-06 16:22 | 38.38111 | -0.85940 | 5137 ft | 244 kts | 185° |
| 2026-05-06 16:23 | 38.36423 | -0.86107 | 4880 ft | 243 kts | 184° |
| 2026-05-06 16:23 | 38.34734 | -0.86274 | 4613 ft | 243 kts | 184° |
| 2026-05-06 16:23 | 38.33067 | -0.86210 | 4332 ft | 240 kts | 160° |
| 2026-05-06 16:23 | 38.31829 | -0.84942 | 4237 ft | 227 kts | 117° |
| 2026-05-06 16:24 | 38.31542 | -0.83048 | 4227 ft | 215 kts | 92° |
| 2026-05-06 16:24 | 38.31469 | -0.81191 | 4204 ft | 204 kts | 96° |
| 2026-05-06 16:24 | 38.31327 | -0.79469 | 3978 ft | 199 kts | 98° |
| 2026-05-06 16:24 | 38.31139 | -0.77661 | 3339 ft | 208 kts | 99° |
| 2026-05-06 16:25 | 38.30935 | -0.75895 | 3015 ft | 194 kts | 98° |
| 2026-05-06 16:25 | 38.30731 | -0.74270 | 2750 ft | 178 kts | 98° |
| 2026-05-06 16:25 | 38.30534 | -0.72764 | 2559 ft | 171 kts | 98° |
| 2026-05-06 16:25 | 38.30351 | -0.71264 | 2314 ft | 171 kts | 97° |
| 2026-05-06 16:26 | 38.30168 | -0.69783 | 2095 ft | 170 kts | 99° |
| 2026-05-06 16:26 | 38.29966 | -0.68313 | 1852 ft | 167 kts | 100° |
| 2026-05-06 16:26 | 38.29768 | -0.66912 | 1671 ft | 156 kts | 101° |
| 2026-05-06 16:26 | 38.29588 | -0.65638 | 1471 ft | 143 kts | 99° |
| 2026-05-06 16:27 | 38.29421 | -0.64447 | 1279 ft | 128 kts | 98° |
| 2026-05-06 16:27 | 38.29266 | -0.63344 | 1120 ft | 127 kts | 99° |
| 2026-05-06 16:27 | 38.29110 | -0.62233 | 957 ft | 132 kts | 99° |
| 2026-05-06 16:27 | 38.28944 | -0.61037 | 775 ft | 141 kts | 99° |
| 2026-05-06 16:28 | 38.28775 | -0.59835 | 582 ft | 137 kts | 97° |
| 2026-05-06 16:28 | 38.28619 | -0.58661 | 384 ft | 134 kts | 96° |
| 2026-05-06 16:28 | 38.28443 | -0.57497 | 205 ft | 136 kts | 96° |
| 2026-05-06 16:28 | 38.28291 | -0.56339 | 114 ft | 122 kts | 100° |
| 2026-05-06 16:29 | 38.28164 | -0.55437 | 92 ft | 88 kts | 100° |
| 2026-05-06 16:29 | 38.28134 | -0.54934 | 73 ft | 33 kts | 75° |
| 2026-05-06 16:29 | 38.28201 | -0.54713 | 64 ft | 11 kts | 47° |
| 2026-05-06 16:29 | 38.28242 | -0.54718 | 67 ft | 4 kts | 314° |
| 2026-05-06 16:30 | 38.28245 | -0.54746 | 68 ft | 5 kts | 279° |
| 2026-05-06 16:30 | 38.28250 | -0.54784 | 70 ft | 8 kts | 279° |
| 2026-05-06 16:30 | 38.28268 | -0.54910 | 71 ft | 14 kts | 280° |
| 2026-05-06 16:30 | 38.28287 | -0.55046 | 80 ft | 17 kts | 280° |
| 2026-05-06 16:31 | 38.28309 | -0.55195 | 87 ft | 15 kts | 281° |
| 2026-05-06 16:31 | 38.28338 | -0.55235 | 88 ft | 7 kts | 36° |
| 2026-05-06 16:31 | 38.28393 | -0.55157 | 87 ft | 12 kts | 33° |
| 2026-05-06 16:31 | 38.28439 | -0.55191 | 89 ft | 11 kts | 284° |
| 2026-05-06 16:32 | 38.28450 | -0.55272 | 88 ft | 0 kts | 274° |
| 2026-05-06 16:32 | 38.28450 | -0.55273 | 88 ft | 1 kts | 274° |
| 2026-05-06 16:32 | 38.28436 | -0.55286 | 91 ft | 6 kts | 190° |
| 2026-05-06 16:32 | 38.28405 | -0.55298 | 90 ft | 3 kts | 230° |
| 2026-05-06 16:33 | 38.28396 | -0.55312 | 91 ft | 0 kts | 228° |